Time;durP1;ratioP1;P1;durP2;ratioP2;P2;SDS_P1;SDS_P2;PMS_P1;PMS_P2;Temp;Humidity;BMP_temperature;BMP_pressure;BME280_temperature;BME280_humidity;BME280_pressure;Samples;Min_cycle;Max_cycle;Signal;HPM_P1;HPM_P2
2022/06/18 03:02:03;;;;;;;0.70;0.60;;;22.00;57.60;;;;;;5491809;22;20506;-73
2022/06/18 03:04:30;;;;;;;0.70;0.60;;;21.90;57.60;;;;;;5034656;28;20497;-73
2022/06/18 03:06:57;;;;;;;0.70;0.60;;;21.80;58.20;;;;;;5034555;28;20471;-73
2022/06/18 03:09:24;;;;;;;1.37;0.70;;;21.80;58.00;;;;;;5034549;28;20493;-73
2022/06/18 03:12:08;;;;;;;0.70;0.60;;;21.80;57.70;;;;;;5034090;28;20464;-73
2022/06/18 03:14:35;;;;;;;0.70;0.60;;;21.70;58.00;;;;;;5034178;28;20774;-74
2022/06/18 03:17:04;;;;;;;0.70;0.60;;;21.70;58.10;;;;;;5035673;28;20493;-73
2022/06/18 03:19:36;;;;;;;1.07;0.60;;;21.70;58.40;;;;;;5034430;28;20502;-73
2022/06/18 03:22:08;;;;;;;0.70;0.70;;;21.80;58.30;;;;;;5034268;28;20502;-73
2022/06/18 03:24:35;;;;;;;0.70;0.60;;;21.80;58.40;;;;;;5034267;28;20486;-73
2022/06/18 03:27:02;;;;;;;1.13;0.60;;;21.70;58.70;;;;;;5034139;28;20479;-73
2022/06/18 03:29:29;;;;;;;1.17;0.60;;;21.60;58.70;;;;;;5034492;28;20498;-74
2022/06/18 03:31:56;;;;;;;0.70;0.60;;;21.60;58.50;;;;;;5034147;28;20517;-74
2022/06/18 03:34:24;;;;;;;0.80;0.80;;;21.60;58.90;;;;;;5034134;28;20451;-73
2022/06/18 03:36:51;;;;;;;0.70;0.60;;;21.70;58.60;;;;;;5033980;28;20448;-73
2022/06/18 03:39:18;;;;;;;0.60;0.50;;;21.70;58.80;;;;;;5033973;28;20451;-73
2022/06/18 03:41:44;;;;;;;1.23;0.60;;;21.80;59.10;;;;;;5034175;28;20502;-73
2022/06/18 03:44:11;;;;;;;0.70;0.60;;;21.90;58.90;;;;;;5033875;28;20860;-73
2022/06/18 03:46:39;;;;;;;0.70;0.57;;;21.90;58.20;;;;;;5033781;28;20483;-73
2022/06/18 03:49:07;;;;;;;0.70;0.60;;;21.80;58.30;;;;;;5034333;28;20455;-73
2022/06/18 03:51:36;;;;;;;0.70;0.60;;;21.90;58.20;;;;;;5033406;28;20970;-73
2022/06/18 03:54:02;;;;;;;0.70;0.60;;;21.90;58.20;;;;;;5033043;28;20473;-73
2022/06/18 03:56:32;;;;;;;1.00;0.70;;;22.00;58.30;;;;;;5033441;28;20938;-73
2022/06/18 03:58:59;;;;;;;0.70;0.60;;;22.00;58.00;;;;;;5033650;28;20534;-74
2022/06/18 04:01:29;;;;;;;0.70;0.60;;;22.10;57.10;;;;;;5033152;28;21068;-73
2022/06/18 04:03:56;;;;;;;0.70;0.60;;;22.10;57.50;;;;;;5033628;28;20431;-74
2022/06/18 04:06:23;;;;;;;0.70;0.60;;;22.10;57.20;;;;;;5033989;28;20561;-74
2022/06/18 04:08:52;;;;;;;0.80;0.70;;;22.10;57.40;;;;;;5033513;28;20505;-74
2022/06/18 04:11:19;;;;;;;0.70;0.60;;;22.10;57.50;;;;;;5033457;28;20463;-73
2022/06/18 04:13:45;;;;;;;0.70;0.70;;;22.20;57.30;;;;;;5033499;28;20446;-74
2022/06/18 04:16:12;;;;;;;0.70;0.70;;;22.30;57.30;;;;;;5033429;28;20443;-73
2022/06/18 04:18:40;;;;;;;0.70;0.60;;;22.40;57.10;;;;;;5033361;28;20574;-73
2022/06/18 04:21:07;;;;;;;0.70;0.60;;;22.40;57.00;;;;;;5033239;28;21060;-74
2022/06/18 04:23:33;;;;;;;0.70;0.70;;;22.30;57.20;;;;;;5033402;28;20451;-74
2022/06/18 04:26:02;;;;;;;0.70;0.60;;;22.30;57.40;;;;;;5033252;28;20486;-74
2022/06/18 04:28:29;;;;;;;1.00;0.60;;;22.30;57.30;;;;;;5033354;28;20497;-73
2022/06/18 04:30:55;;;;;;;0.70;0.70;;;22.30;57.20;;;;;;5033225;28;20850;-74
2022/06/18 04:33:22;;;;;;;0.70;0.60;;;22.30;57.30;;;;;;5032923;28;20860;-75
2022/06/18 04:35:51;;;;;;;0.70;0.60;;;22.40;57.30;;;;;;5033207;28;20462;-73
2022/06/18 04:38:18;;;;;;;0.70;0.63;;;22.50;57.10;;;;;;5033118;28;20443;-74
2022/06/18 04:40:45;;;;;;;0.70;0.60;;;22.60;57.10;;;;;;5033117;28;20467;-74
2022/06/18 04:43:13;;;;;;;0.70;0.60;;;22.70;57.20;;;;;;5033133;28;20450;-73
2022/06/18 04:45:39;;;;;;;0.70;0.60;;;22.80;56.90;;;;;;5033055;28;20501;-73
2022/06/18 04:48:07;;;;;;;1.17;0.80;;;22.90;56.90;;;;;;5033089;28;20541;-74
2022/06/18 04:50:36;;;;;;;0.70;0.60;;;23.00;56.50;;;;;;5032989;28;20860;-74
2022/06/18 04:53:04;;;;;;;0.70;0.60;;;23.10;56.50;;;;;;5033080;28;20470;-73
2022/06/18 04:55:30;;;;;;;1.73;1.10;;;23.20;55.80;;;;;;5033064;28;20443;-73
2022/06/18 04:57:57;;;;;;;0.70;0.60;;;23.30;56.30;;;;;;5033020;28;20520;-73
2022/06/18 05:00:25;;;;;;;0.60;0.50;;;23.50;55.70;;;;;;5033046;28;20443;-73
2022/06/18 05:02:52;;;;;;;0.70;0.60;;;23.50;55.90;;;;;;5032616;28;20451;-73
2022/06/18 05:05:22;;;;;;;0.70;0.60;;;23.70;55.80;;;;;;5033053;28;20456;-73
2022/06/18 05:07:50;;;;;;;0.70;0.60;;;23.80;55.70;;;;;;5036848;28;20472;-74
2022/06/18 05:10:17;;;;;;;0.80;0.80;;;23.90;55.60;;;;;;5036839;28;20505;-73
2022/06/18 05:12:43;;;;;;;0.60;0.60;;;24.00;55.50;;;;;;5036744;28;20462;-73
2022/06/18 05:15:12;;;;;;;0.70;0.60;;;24.00;55.40;;;;;;5036705;28;20447;-73
2022/06/18 05:17:43;;;;;;;0.70;0.60;;;24.00;55.30;;;;;;5036713;28;20531;-73
2022/06/18 05:20:17;;;;;;;0.73;0.70;;;24.00;55.70;;;;;;5036665;28;20435;-73
2022/06/18 05:22:44;;;;;;;0.60;0.60;;;24.00;57.10;;;;;;5036169;28;21057;-73
2022/06/18 05:25:12;;;;;;;0.80;0.60;;;24.10;56.90;;;;;;5036219;28;20865;-73
2022/06/18 05:27:39;;;;;;;0.70;0.60;;;24.30;57.20;;;;;;5036463;28;20541;-73
2022/06/18 05:30:07;;;;;;;0.70;0.70;;;24.40;57.40;;;;;;5036444;28;20501;-73
2022/06/18 05:32:34;;;;;;;0.80;0.60;;;24.60;57.00;;;;;;5036508;28;20467;-73
2022/06/18 05:35:03;;;;;;;0.70;0.50;;;24.70;56.40;;;;;;5036306;28;20455;-73
2022/06/18 05:37:32;;;;;;;0.70;0.60;;;24.70;55.20;;;;;;5036298;28;20526;-73
2022/06/18 05:39:59;;;;;;;0.80;0.60;;;24.80;55.70;;;;;;5036212;28;20501;-71
2022/06/18 05:42:26;;;;;;;0.70;0.60;;;24.80;54.70;;;;;;5036113;28;20463;-72
2022/06/18 05:44:54;;;;;;;0.60;0.50;;;24.90;55.50;;;;;;5036164;28;20455;-71
2022/06/18 05:47:23;;;;;;;0.67;0.60;;;25.00;56.40;;;;;;5036149;28;20570;-71
2022/06/18 05:49:50;;;;;;;0.70;0.60;;;25.00;55.90;;;;;;5036121;28;20451;-72
2022/06/18 05:52:19;;;;;;;0.90;0.60;;;25.10;56.60;;;;;;5035596;28;21044;-73
2022/06/18 05:54:46;;;;;;;0.70;0.60;;;25.10;56.10;;;;;;5036766;28;20447;-73
2022/06/18 05:57:13;;;;;;;0.70;0.50;;;25.40;56.10;;;;;;5035984;28;20530;-73
2022/06/18 05:59:40;;;;;;;0.70;0.60;;;25.30;55.40;;;;;;5035567;28;20947;-74
2022/06/18 06:02:08;;;;;;;1.00;0.67;;;25.50;55.10;;;;;;5035345;28;21063;-73
2022/06/18 06:04:34;;;;;;;1.27;0.60;;;25.70;55.10;;;;;;5035864;28;20497;-73
2022/06/18 06:07:01;;;;;;;0.70;0.60;;;25.90;54.90;;;;;;5035648;28;20475;-72
2022/06/18 06:12:13;;;;;;;0.70;0.60;;;25.90;53.80;;;;;;5035693;28;20904;-73
2022/06/18 06:14:41;;;;;;;0.80;0.70;;;26.00;54.90;;;;;;5035623;28;20505;-73
2022/06/18 06:17:13;;;;;;;0.67;0.60;;;26.10;53.90;;;;;;5035213;28;20443;-72
2022/06/18 06:19:40;;;;;;;0.60;0.57;;;26.30;54.20;;;;;;5035555;28;20431;-73
2022/06/18 06:22:07;;;;;;;0.70;0.57;;;26.30;52.60;;;;;;5035410;28;20517;-73
2022/06/18 06:24:34;;;;;;;0.60;0.50;;;26.40;53.30;;;;;;5035543;28;20448;-73
2022/06/18 06:27:01;;;;;;;0.70;0.60;;;26.40;53.80;;;;;;5035720;28;20532;-71
2022/06/18 06:29:28;;;;;;;0.70;0.60;;;26.50;53.80;;;;;;5035671;28;20443;-72
2022/06/18 06:31:54;;;;;;;0.70;0.70;;;26.40;53.70;;;;;;5035336;28;20494;-72
2022/06/18 06:34:21;;;;;;;0.70;0.60;;;26.40;54.10;;;;;;5035246;28;20505;-72
2022/06/18 06:36:48;;;;;;;0.60;0.50;;;26.50;54.40;;;;;;5035308;28;20436;-71
2022/06/18 06:39:16;;;;;;;0.70;0.60;;;26.50;54.50;;;;;;5035221;28;20493;-71
2022/06/18 06:41:45;;;;;;;0.70;0.60;;;26.50;54.20;;;;;;5035270;28;20489;-73
2022/06/18 06:44:12;;;;;;;0.60;0.57;;;26.80;53.50;;;;;;5034876;28;20997;-73
2022/06/18 06:46:38;;;;;;;0.63;0.60;;;26.80;52.90;;;;;;5034967;28;20455;-74
2022/06/18 06:49:05;;;;;;;0.90;0.70;;;27.00;54.00;;;;;;5034963;28;20497;-72
2022/06/18 06:51:35;;;;;;;0.60;0.50;;;27.10;52.70;;;;;;5034860;28;20874;-73
2022/06/18 06:54:02;;;;;;;0.70;0.60;;;27.00;52.90;;;;;;5034810;28;20497;-72
2022/06/18 06:59:14;;;;;;;0.70;0.60;;;27.00;52.50;;;;;;5035049;28;20403;-75
2022/06/18 07:01:41;;;;;;;0.70;0.60;;;27.30;53.20;;;;;;5034255;28;20859;-74
2022/06/18 07:04:11;;;;;;;0.70;0.70;;;27.60;53.80;;;;;;5034405;28;21004;-71
2022/06/18 07:06:38;;;;;;;0.77;0.60;;;27.70;52.00;;;;;;5034598;28;20494;-75
2022/06/18 07:09:06;;;;;;;0.63;0.50;;;27.90;53.50;;;;;;5034598;28;20538;-74
2022/06/18 07:11:34;;;;;;;0.80;0.60;;;27.90;52.30;;;;;;5034465;28;20471;-71
2022/06/18 07:14:00;;;;;;;0.70;0.60;;;27.70;51.60;;;;;;5034492;28;20503;-72
2022/06/18 07:16:29;;;;;;;0.70;0.60;;;27.50;53.00;;;;;;5034520;28;20447;-73
2022/06/18 07:18:56;;;;;;;0.70;0.60;;;27.40;53.20;;;;;;5034540;28;20493;-73
2022/06/18 07:21:23;;;;;;;0.70;0.60;;;27.60;51.30;;;;;;5034355;28;20471;-72
2022/06/18 07:23:50;;;;;;;0.70;0.50;;;27.70;49.80;;;;;;5034512;28;20456;-72
2022/06/18 07:26:19;;;;;;;0.67;0.50;;;27.80;49.80;;;;;;5034351;28;20491;-73
2022/06/18 07:28:46;;;;;;;0.67;0.60;;;28.10;50.70;;;;;;5033529;28;20483;-76
2022/06/18 07:31:18;;;;;;;0.70;0.60;;;28.40;51.20;;;;;;5033892;28;20848;-74
2022/06/18 07:33:47;;;;;;;0.70;0.60;;;28.80;49.50;;;;;;5034153;28;20431;-74
2022/06/18 07:36:14;;;;;;;0.70;0.60;;;28.90;50.30;;;;;;5034152;28;20533;-72
2022/06/18 07:38:40;;;;;;;0.70;0.60;;;28.90;49.80;;;;;;5034258;28;20451;-75
2022/06/18 07:41:07;;;;;;;0.70;0.60;;;28.90;51.30;;;;;;5033943;28;20990;-73
2022/06/18 07:43:37;;;;;;;0.60;0.50;;;28.90;49.10;;;;;;5034158;28;20447;-73
2022/06/18 07:46:05;;;;;;;0.70;0.60;;;28.80;50.00;;;;;;5033979;28;20466;-73
2022/06/18 07:48:33;;;;;;;0.70;0.60;;;28.90;50.20;;;;;;5033752;28;20487;-73
2022/06/18 07:51:01;;;;;;;0.70;0.60;;;28.90;49.80;;;;;;5033718;28;20517;-72
2022/06/18 07:53:28;;;;;;;0.70;0.60;;;29.10;48.60;;;;;;5033767;28;20447;-73
2022/06/18 07:55:56;;;;;;;1.10;0.50;;;29.40;48.50;;;;;;5033416;28;20962;-73
2022/06/18 07:58:23;;;;;;;0.70;0.60;;;29.40;48.30;;;;;;5033664;28;20443;-73
2022/06/18 08:00:50;;;;;;;0.80;0.60;;;29.50;45.00;;;;;;5033350;28;20470;-73
2022/06/18 08:03:18;;;;;;;0.80;0.70;;;29.80;46.20;;;;;;5033707;28;20435;-73
2022/06/18 08:05:46;;;;;;;0.70;0.50;;;30.10;46.00;;;;;;5033283;28;20988;-73
2022/06/18 08:08:15;;;;;;;0.70;0.60;;;30.30;45.10;;;;;;5033453;28;20489;-73
2022/06/18 08:10:43;;;;;;;0.70;0.50;;;30.40;42.00;;;;;;5033437;28;20501;-73
2022/06/18 08:13:10;;;;;;;0.70;0.60;;;30.50;43.40;;;;;;5033513;28;20451;-73
2022/06/18 08:15:37;;;;;;;0.70;0.60;;;30.50;43.50;;;;;;5033519;28;20513;-73
2022/06/18 08:18:04;;;;;;;0.70;0.60;;;30.30;44.40;;;;;;5033526;28;20443;-73
2022/06/18 08:20:32;;;;;;;0.70;0.60;;;30.10;43.20;;;;;;5033394;28;20513;-73
2022/06/18 08:23:01;;;;;;;0.60;0.60;;;30.20;43.60;;;;;;5033360;28;20450;-73
2022/06/18 08:25:31;;;;;;;0.70;0.60;;;30.60;43.40;;;;;;5033363;28;20821;-73
2022/06/18 08:28:00;;;;;;;0.67;0.60;;;30.70;44.10;;;;;;5033260;28;20467;-73
2022/06/18 08:30:28;;;;;;;0.80;0.53;;;30.90;43.80;;;;;;5032867;28;20795;-73
2022/06/18 08:32:54;;;;;;;0.70;0.60;;;30.60;42.50;;;;;;5033254;28;20478;-73
2022/06/18 08:35:21;;;;;;;0.60;0.60;;;30.50;44.50;;;;;;5033349;28;20573;-73
2022/06/18 08:37:49;;;;;;;0.60;0.60;;;30.70;44.10;;;;;;5033161;28;20465;-73
2022/06/18 08:40:35;;;;;;;1.33;0.60;;;30.70;42.10;;;;;;5034940;28;20451;-73
2022/06/18 08:43:19;;;;;;;0.63;0.60;;;30.60;43.00;;;;;;5037228;28;20427;-73
2022/06/18 08:45:55;;;;;;;0.70;0.60;;;30.70;43.10;;;;;;5037262;28;20485;-73
2022/06/18 08:48:37;;;;;;;0.67;0.60;;;31.00;45.60;;;;;;5036691;28;20816;-74
2022/06/18 08:51:16;;;;;;;0.70;0.60;;;31.10;43.30;;;;;;5037095;28;20467;-75
2022/06/18 08:54:04;;;;;;;0.80;0.60;;;31.00;43.80;;;;;;5036983;28;20431;-73
2022/06/18 08:56:39;;;;;;;0.70;0.60;;;31.20;45.20;;;;;;5037823;28;20431;-73
2022/06/18 08:59:19;;;;;;;0.70;0.60;;;31.40;42.20;;;;;;5036923;28;20485;-73
2022/06/18 09:01:50;;;;;;;0.70;0.60;;;31.10;42.70;;;;;;5036560;28;20558;-73
2022/06/18 09:04:26;;;;;;;1.77;0.60;;;31.00;44.10;;;;;;5036535;28;20844;-73
2022/06/18 09:07:10;;;;;;;0.60;0.60;;;30.70;42.30;;;;;;5036841;28;20439;-73
2022/06/18 09:09:47;;;;;;;0.60;0.50;;;30.60;41.50;;;;;;5036502;28;20800;-73
2022/06/18 09:12:17;;;;;;;0.60;0.50;;;30.50;42.60;;;;;;5036747;28;20463;-73
2022/06/18 09:14:51;;;;;;;0.60;0.57;;;30.70;42.60;;;;;;5036790;28;20522;-73
2022/06/18 09:17:22;;;;;;;0.60;0.60;;;30.80;43.50;;;;;;5038076;28;20799;-73
2022/06/18 09:19:58;;;;;;;0.63;0.53;;;30.80;42.40;;;;;;5036615;28;20522;-73
2022/06/18 09:22:27;;;;;;;0.70;0.60;;;30.80;42.40;;;;;;5036225;28;21039;-73
2022/06/18 09:25:01;;;;;;;0.70;0.60;;;31.00;44.60;;;;;;5036528;28;20501;-73
2022/06/18 09:27:34;;;;;;;1.10;0.60;;;31.10;43.60;;;;;;5036428;28;20436;-73
2022/06/18 09:30:08;;;;;;;1.10;0.60;;;31.00;43.80;;;;;;5036509;28;20891;-73
2022/06/18 09:32:42;;;;;;;0.60;0.60;;;30.80;43.30;;;;;;5036354;28;20501;-73
2022/06/18 09:35:15;;;;;;;0.80;0.50;;;30.60;42.70;;;;;;5036382;28;20431;-73
2022/06/18 09:37:51;;;;;;;0.60;0.50;;;30.70;41.70;;;;;;5036841;28;20444;-73
2022/06/18 09:40:25;;;;;;;0.73;0.53;;;30.90;42.50;;;;;;5036327;28;20507;-73
2022/06/18 09:42:58;;;;;;;0.60;0.50;;;31.10;41.00;;;;;;5036251;28;20494;-73
2022/06/18 09:45:31;;;;;;;0.60;0.50;;;30.90;37.30;;;;;;5036172;28;20437;-72
2022/06/18 09:47:57;;;;;;;0.60;0.50;;;31.00;40.00;;;;;;5036077;28;20793;-73
2022/06/18 09:50:33;;;;;;;0.60;0.50;;;31.10;41.90;;;;;;5036051;28;20874;-73
2022/06/18 09:53:04;;;;;;;1.00;0.50;;;31.50;40.60;;;;;;5035342;28;20431;-73
2022/06/18 09:55:40;;;;;;;0.70;0.50;;;31.50;37.70;;;;;;5036028;28;20431;-73
2022/06/18 09:58:10;;;;;;;0.60;0.50;;;31.60;38.80;;;;;;5035953;28;20514;-73
2022/06/18 10:00:38;;;;;;;0.60;0.50;;;31.50;39.10;;;;;;5035867;28;20522;-74
2022/06/18 10:03:12;;;;;;;0.60;0.50;;;31.60;39.50;;;;;;5035745;28;20455;-74
2022/06/18 10:08:30;;;;;;;0.70;0.60;;;31.60;36.90;;;;;;5035473;28;20466;-74
2022/06/18 10:11:07;;;;;;;0.80;0.50;;;31.60;37.20;;;;;;5035361;28;20558;-74
2022/06/18 10:13:38;;;;;;;0.70;0.60;;;31.70;36.60;;;;;;5035691;28;20486;-74
2022/06/18 10:16:13;;;;;;;0.60;0.50;;;31.80;38.80;;;;;;5035642;28;20467;-74
2022/06/18 10:18:50;;;;;;;0.80;0.60;;;31.90;38.50;;;;;;5035560;28;20443;-74
2022/06/18 10:21:23;;;;;;;0.60;0.50;;;32.10;37.80;;;;;;5035502;28;20471;-74
2022/06/18 10:23:58;;;;;;;0.60;0.50;;;32.20;37.10;;;;;;5035476;28;20815;-74
2022/06/18 10:26:45;;;;;;;0.60;0.53;;;32.00;37.00;;;;;;5035391;28;20431;-73
2022/06/18 10:29:18;;;;;;;0.60;0.50;;;32.20;37.60;;;;;;5035281;28;20475;-74
2022/06/18 10:31:56;;;;;;;0.70;0.60;;;32.30;35.10;;;;;;5035242;28;20498;-74
2022/06/18 10:34:37;;;;;;;0.70;0.60;;;32.50;37.50;;;;;;5035295;28;20431;-74
2022/06/18 10:37:15;;;;;;;0.60;0.50;;;32.80;37.90;;;;;;5035175;28;20485;-74
2022/06/18 10:39:49;;;;;;;0.60;0.57;;;33.10;38.40;;;;;;5035316;28;20498;-74
2022/06/18 10:42:26;;;;;;;0.70;0.60;;;33.50;37.70;;;;;;5035106;28;20489;-73
2022/06/18 10:45:04;;;;;;;0.60;0.50;;;33.40;35.50;;;;;;5035183;28;20431;-74
2022/06/18 10:47:35;;;;;;;0.60;0.50;;;33.40;35.60;;;;;;5035031;28;20428;-74
2022/06/18 10:50:05;;;;;;;0.70;0.60;;;33.10;34.70;;;;;;5035001;28;20419;-74
2022/06/18 10:52:31;;;;;;;0.60;0.50;;;32.80;33.10;;;;;;5034841;28;20712;-74
2022/06/18 10:55:13;;;;;;;0.90;0.50;;;33.00;34.50;;;;;;5034849;28;20447;-74
2022/06/18 10:57:40;;;;;;;0.73;0.60;;;33.30;36.80;;;;;;5034895;28;20514;-73
2022/06/18 11:00:17;;;;;;;0.60;0.60;;;33.40;35.60;;;;;;5034837;28;20553;-74
2022/06/18 11:02:46;;;;;;;0.70;0.60;;;33.60;35.80;;;;;;5033997;28;20483;-74
2022/06/18 11:05:23;;;;;;;1.23;0.60;;;33.50;36.10;;;;;;5034409;28;20864;-75
2022/06/18 11:07:52;;;;;;;0.70;0.67;;;33.70;36.50;;;;;;5034609;28;20489;-75
2022/06/18 11:10:24;;;;;;;0.60;0.50;;;33.60;35.30;;;;;;5034471;28;20505;-74
2022/06/18 11:12:54;;;;;;;0.70;0.63;;;33.30;35.70;;;;;;5034445;28;20431;-74
2022/06/18 11:15:26;;;;;;;0.70;0.60;;;33.10;37.30;;;;;;5034359;28;20509;-74
2022/06/18 11:17:55;;;;;;;0.70;0.63;;;32.80;36.80;;;;;;5034104;28;20938;-74
2022/06/18 11:20:24;;;;;;;0.80;0.63;;;33.00;36.70;;;;;;5034424;28;20504;-75
2022/06/18 11:22:53;;;;;;;0.70;0.50;;;33.00;36.60;;;;;;5034396;28;20458;-74
2022/06/18 11:25:28;;;;;;;0.80;0.60;;;33.10;36.90;;;;;;5034327;28;20445;-74
2022/06/18 11:27:57;;;;;;;0.60;0.50;;;33.30;37.90;;;;;;5034209;28;20427;-75
2022/06/18 11:30:29;;;;;;;0.77;0.67;;;32.90;38.00;;;;;;5034009;28;20934;-74
2022/06/18 11:32:57;;;;;;;0.70;0.60;;;32.80;38.60;;;;;;5034038;28;20436;-72
2022/06/18 11:35:28;;;;;;;0.70;0.60;;;32.80;38.20;;;;;;5033671;28;20939;-74
2022/06/18 11:38:00;;;;;;;0.70;0.60;;;33.00;36.80;;;;;;5034062;28;20436;-73
2022/06/18 11:40:28;;;;;;;0.63;0.60;;;33.20;37.00;;;;;;5033637;28;20522;-73
2022/06/18 11:42:57;;;;;;;0.90;0.90;;;33.50;38.70;;;;;;5034165;28;20479;-72
2022/06/18 11:45:38;;;;;;;0.80;0.70;;;33.30;37.20;;;;;;5033952;28;20443;-74
2022/06/18 11:48:15;;;;;;;1.30;0.70;;;32.90;36.20;;;;;;5033847;28;20455;-74
2022/06/18 11:50:49;;;;;;;0.70;0.60;;;32.90;37.10;;;;;;5034025;28;20435;-73
2022/06/18 11:53:25;;;;;;;0.77;0.70;;;33.10;39.00;;;;;;5033752;28;20427;-74
2022/06/18 11:55:55;;;;;;;0.70;0.70;;;33.30;38.00;;;;;;5033717;28;20438;-75
2022/06/18 11:58:28;;;;;;;1.00;0.90;;;33.10;36.80;;;;;;5033665;28;20498;-74
2022/06/18 12:01:03;;;;;;;1.13;1.03;;;33.10;37.30;;;;;;5033384;28;20529;-74
2022/06/18 12:03:39;;;;;;;1.63;1.00;;;33.30;37.90;;;;;;5033305;28;20811;-74
2022/06/18 12:06:12;;;;;;;0.80;0.80;;;33.40;36.60;;;;;;5033604;28;20519;-74
2022/06/18 12:08:40;;;;;;;1.00;0.90;;;33.80;37.70;;;;;;5033389;28;20471;-74
2022/06/18 12:11:18;;;;;;;1.00;0.83;;;33.50;39.00;;;;;;5033398;28;20886;-74
2022/06/18 12:13:48;;;;;;;1.63;1.00;;;33.30;37.80;;;;;;5033059;28;21011;-74
2022/06/18 12:16:22;;;;;;;1.10;0.80;;;33.30;39.00;;;;;;5033054;28;20459;-73
2022/06/18 12:18:55;;;;;;;0.70;0.70;;;33.80;39.80;;;;;;5033312;28;20473;-74
2022/06/18 12:21:34;;;;;;;1.50;1.00;;;33.80;38.00;;;;;;5033281;28;20466;-74
2022/06/18 12:24:12;;;;;;;0.80;0.80;;;33.90;38.50;;;;;;5033433;28;20427;-73
2022/06/18 12:26:47;;;;;;;0.97;0.83;;;34.10;38.30;;;;;;5033433;28;20430;-73
2022/06/18 12:29:36;;;;;;;1.10;1.00;;;34.00;39.30;;;;;;5033184;28;20471;-73
2022/06/18 12:32:09;;;;;;;1.53;1.03;;;34.30;35.90;;;;;;5033209;28;20520;-73
2022/06/18 12:34:45;;;;;;;1.07;0.90;;;34.60;35.70;;;;;;5033279;28;20435;-73
2022/06/18 12:37:20;;;;;;;1.10;1.00;;;34.80;36.00;;;;;;5033212;28;20427;-73
2022/06/18 12:39:56;;;;;;;1.20;1.10;;;35.20;36.80;;;;;;5033275;28;20477;-74
2022/06/18 12:42:30;;;;;;;1.17;1.00;;;35.40;36.50;;;;;;5033503;28;20470;-74
2022/06/18 12:45:06;;;;;;;1.00;0.90;;;35.30;36.60;;;;;;5033584;28;20481;-74
2022/06/18 12:47:41;;;;;;;1.30;1.00;;;35.30;35.80;;;;;;5033223;28;20465;-74
2022/06/18 12:50:21;;;;;;;1.20;0.80;;;35.20;36.20;;;;;;5033919;28;20564;-74
2022/06/18 12:52:56;;;;;;;0.80;0.80;;;35.00;36.00;;;;;;5032939;28;20997;-74
2022/06/18 12:55:34;;;;;;;0.80;0.77;;;35.00;37.50;;;;;;5033134;28;20427;-74
2022/06/18 12:58:17;;;;;;;0.90;0.80;;;34.60;36.80;;;;;;5033166;28;20439;-74
2022/06/18 13:00:47;;;;;;;1.10;0.80;;;34.50;39.80;;;;;;5032882;28;20431;-74
2022/06/18 13:03:47;;;;;;;1.63;0.80;;;34.50;38.40;;;;;;5033113;28;20501;-74
2022/06/18 13:06:27;;;;;;;0.83;0.73;;;34.70;37.70;;;;;;5033060;28;20427;-73
2022/06/18 13:09:04;;;;;;;1.17;0.70;;;34.70;36.90;;;;;;5032926;28;20474;-74
2022/06/18 13:11:42;;;;;;;1.17;0.73;;;34.70;38.00;;;;;;5032613;28;20974;-74
2022/06/18 13:14:25;;;;;;;1.17;0.70;;;34.70;36.80;;;;;;5032681;28;20903;-74
2022/06/18 13:16:56;;;;;;;1.40;0.87;;;34.70;37.30;;;;;;5032949;28;20787;-75
2022/06/18 13:19:30;;;;;;;1.00;0.90;;;35.00;38.70;;;;;;5032915;28;20450;-74
2022/06/18 13:21:58;;;;;;;1.00;0.80;;;35.20;36.80;;;;;;5032735;28;20466;-74
2022/06/18 13:30:05;;;;;;;0.90;0.80;;;35.30;36.80;;;;;;5036471;28;20465;-74
2022/06/18 13:32:42;;;;;;;1.40;0.87;;;35.00;37.30;;;;;;5036371;28;20470;-74
2022/06/18 13:35:16;;;;;;;0.80;0.80;;;35.30;39.60;;;;;;5036416;28;20481;-74
2022/06/18 13:37:57;;;;;;;1.20;0.90;;;35.20;37.90;;;;;;5036368;28;20530;-74
2022/06/18 13:40:31;;;;;;;0.70;0.63;;;35.30;39.30;;;;;;5036362;28;20418;-74
2022/06/18 13:43:07;;;;;;;0.80;0.73;;;35.40;38.00;;;;;;5036289;28;20489;-72
2022/06/18 13:45:46;;;;;;;0.70;0.70;;;35.70;38.80;;;;;;5036282;28;20445;-74
2022/06/18 13:48:25;;;;;;;1.00;0.90;;;35.80;37.70;;;;;;5036249;28;20518;-74
2022/06/18 13:50:54;;;;;;;0.93;0.83;;;35.80;38.00;;;;;;5036001;28;20520;-74
2022/06/18 13:53:28;;;;;;;0.80;0.80;;;35.80;38.60;;;;;;5036062;28;20450;-74
2022/06/18 13:55:55;;;;;;;1.20;1.10;;;35.90;39.10;;;;;;5036061;28;20497;-74
2022/06/18 13:58:25;;;;;;;1.00;0.80;;;35.90;39.40;;;;;;5036008;28;20451;-74
2022/06/18 14:01:05;;;;;;;1.23;0.97;;;36.20;38.50;;;;;;5035788;28;20467;-74
2022/06/18 14:03:36;;;;;;;0.80;0.77;;;36.50;38.50;;;;;;5035964;28;20829;-74
2022/06/18 14:06:06;;;;;;;1.30;0.80;;;36.50;37.90;;;;;;5035899;28;20481;-74
2022/06/18 14:08:41;;;;;;;0.90;0.90;;;36.20;37.00;;;;;;5035549;28;20937;-74
2022/06/18 14:11:09;;;;;;;0.97;0.87;;;35.90;37.30;;;;;;5035683;28;20454;-74
2022/06/18 14:13:47;;;;;;;1.00;0.90;;;35.90;38.00;;;;;;5035984;28;20478;-74
2022/06/18 14:16:25;;;;;;;0.90;0.77;;;35.80;37.40;;;;;;5035730;28;20434;-75
2022/06/18 14:18:52;;;;;;;1.07;0.90;;;36.20;38.20;;;;;;5035638;28;20485;-74
2022/06/18 14:21:27;;;;;;;1.10;0.80;;;36.50;36.90;;;;;;5035457;28;20505;-74
2022/06/18 14:23:58;;;;;;;1.13;0.90;;;36.60;37.80;;;;;;5035222;28;20905;-74
2022/06/18 14:26:25;;;;;;;1.13;0.90;;;36.40;37.60;;;;;;5035529;28;20431;-74
2022/06/18 14:29:00;;;;;;;1.07;0.90;;;36.30;37.70;;;;;;5035446;28;20450;-74
2022/06/18 14:31:37;;;;;;;0.93;0.83;;;36.10;38.60;;;;;;5035550;28;20462;-74
2022/06/18 14:34:08;;;;;;;0.97;0.80;;;35.70;39.00;;;;;;5035375;28;20435;-74
2022/06/18 14:36:40;;;;;;;2.03;0.93;;;35.70;38.70;;;;;;5035382;28;20435;-74
2022/06/18 14:39:21;;;;;;;2.93;1.23;;;36.00;39.50;;;;;;5035037;28;20430;-73
2022/06/18 14:41:53;;;;;;;1.00;0.80;;;36.10;39.20;;;;;;5035106;28;20865;-74
2022/06/18 14:44:53;;;;;;;1.10;0.97;;;36.30;39.40;;;;;;5035106;28;20443;-74
2022/06/18 14:47:49;;;;;;;1.20;0.80;;;36.20;38.10;;;;;;5035149;28;20427;-73
2022/06/18 14:50:44;;;;;;;1.10;1.00;;;35.90;37.60;;;;;;5034987;28;20521;-74
2022/06/18 14:53:38;;;;;;;0.80;0.70;;;35.70;38.30;;;;;;5034996;28;20431;-74
2022/06/18 14:56:20;;;;;;;0.93;0.93;;;35.70;38.90;;;;;;5035443;28;20427;-74
2022/06/18 14:59:04;;;;;;;1.03;0.80;;;35.60;39.10;;;;;;5034883;28;20525;-74
2022/06/18 15:01:42;;;;;;;1.30;0.93;;;35.80;38.10;;;;;;5034610;28;20497;-74
2022/06/18 15:04:17;;;;;;;1.40;0.93;;;36.00;38.50;;;;;;5034531;28;20907;-74
2022/06/18 15:06:44;;;;;;;1.27;1.17;;;36.00;38.00;;;;;;5034451;28;20906;-74
2022/06/18 15:09:13;;;;;;;0.90;0.90;;;36.20;38.20;;;;;;5034611;28;20478;-74
2022/06/18 15:11:45;;;;;;;1.00;0.80;;;36.30;37.00;;;;;;5034550;28;20805;-74
2022/06/18 15:14:18;;;;;;;1.53;0.90;;;36.60;37.70;;;;;;5034516;28;20929;-74
2022/06/18 15:16:59;;;;;;;0.90;0.90;;;36.60;36.90;;;;;;5036024;28;20435;-74
2022/06/18 15:19:32;;;;;;;2.20;0.80;;;36.60;37.40;;;;;;5034528;28;20434;-75
2022/06/18 15:22:03;;;;;;;0.90;0.80;;;36.00;37.50;;;;;;5034453;28;20471;-74
2022/06/18 15:27:28;;;;;;;1.00;0.87;;;35.90;38.40;;;;;;5034446;28;20406;-73
2022/06/18 15:30:00;;;;;;;1.63;1.03;;;36.10;37.10;;;;;;5034211;28;20470;-74
2022/06/18 15:32:29;;;;;;;1.80;0.90;;;35.70;37.50;;;;;;5034153;28;20475;-74
2022/06/18 15:35:03;;;;;;;0.93;0.93;;;35.60;36.70;;;;;;5034161;28;20516;-74
2022/06/18 15:37:30;;;;;;;1.60;1.20;;;35.70;37.10;;;;;;5033811;28;20789;-73
2022/06/18 15:40:00;;;;;;;1.00;0.90;;;35.90;35.90;;;;;;5034035;28;20434;-74
2022/06/18 15:42:37;;;;;;;1.23;1.03;;;36.00;35.60;;;;;;5034021;28;20470;-74
2022/06/18 15:45:07;;;;;;;1.43;1.30;;;35.80;35.80;;;;;;5034036;28;20439;-74
2022/06/18 15:47:34;;;;;;;1.30;1.20;;;36.10;36.00;;;;;;5033484;28;20458;-73
2022/06/18 15:50:03;;;;;;;1.20;1.00;;;36.20;35.50;;;;;;5033229;28;20478;-74
2022/06/18 15:52:33;;;;;;;1.43;1.10;;;36.00;36.50;;;;;;5033805;28;20470;-74
2022/06/18 15:55:03;;;;;;;1.67;1.13;;;35.80;36.00;;;;;;5033805;28;20453;-74
2022/06/18 15:57:32;;;;;;;1.20;1.10;;;35.40;34.40;;;;;;5033768;28;20442;-73
2022/06/18 16:00:03;;;;;;;1.50;1.27;;;35.40;35.50;;;;;;5033754;28;20469;-74
2022/06/18 16:02:31;;;;;;;1.20;1.10;;;35.50;35.30;;;;;;5033249;28;20982;-75
2022/06/18 16:04:59;;;;;;;1.20;1.10;;;35.40;34.60;;;;;;5033940;28;20449;-74
2022/06/18 16:07:26;;;;;;;1.23;1.10;;;35.50;35.30;;;;;;5033617;28;20553;-73
2022/06/18 16:09:56;;;;;;;1.20;1.00;;;35.50;34.30;;;;;;5033500;28;20474;-74
2022/06/18 16:12:35;;;;;;;1.33;1.23;;;35.30;34.60;;;;;;5033550;28;20520;-74
2022/06/18 16:15:05;;;;;;;1.20;1.10;;;35.20;35.40;;;;;;5033572;28;20442;-74
2022/06/18 16:17:34;;;;;;;1.20;1.10;;;35.10;35.20;;;;;;5033497;28;20454;-73
2022/06/18 16:20:04;;;;;;;1.40;1.30;;;34.90;36.00;;;;;;5033156;28;20497;-74
2022/06/18 16:22:34;;;;;;;1.00;0.90;;;34.80;35.80;;;;;;5033386;28;20513;-74
2022/06/18 16:25:08;;;;;;;1.70;1.33;;;34.70;36.00;;;;;;5034463;28;20529;-75
2022/06/18 16:27:38;;;;;;;1.37;1.27;;;34.50;36.20;;;;;;5033432;28;20524;-74